Hlavní strana
METAR-TAF:

METAR-TAF

Letiště :

Florencie, Itálie

zeměpisná šířka: 43-48N, zeměpisná délka: 011-12E, výška: 40 m

Aktuální stav počasí

Zpráva byla vytvořena před 10 minutami, v 07:50 UTC
vítr z různých směrů 2 kt
Teplota 23°C
Vlhkost vzduchu 69%
Tlak 1018 hPa
Viditelnost 10 km a více
Žádná oblačnost pod 1500 m, nevyskytují se cumulonimby.

METAR: LIRQ 260750Z VRB02KT CAVOK 23/17 Q1018

Čas: 10:00 (08:00 UTC)

Předpověď počasí

Zpráva byla vytvořena před 3 hodinami a 0 minutami, v 05:00 UTC
Předpověď platná od 26 v 06 UTC do 27 v 06 UTC
vítr z různých směrů 6 kt
Viditelnost 10 km a více
Polojasno ve výšce 3000 ft

TAF: LIRQ 260500Z 2606/2706 VRB06KT 9999 SCT030

Stav a předpovědi počasí z více než 4 000 letišť (zprávy METAR a TAF).

Červené a žluté tečky na mapě představují dostupné meteorologické stanice.

Když kurzor umístíte na tečku, zobrazí se název stanice.

Pak kliknutím zobrazíte stav a předpověď počasí.

Chcete-li změnit mapu, kliknutím na zelené tlačítko se znaménkem +mapu přiblížíte, kliknutím na zelené tlačítko se znaménkem – mapu oddálíte a kliknutím na zelené šipky přejdete na sousední mapy.


METAR-TAF: